sensor_id;sensor_type;location;lat;lon;timestamp;pressure;altitude;pressure_sealevel;temperature;humidity
39823;BME280;25499;53.958;10.970;2023-05-12T05:19:16;101796.44;;;13.42;93.82
39823;BME280;25499;53.958;10.970;2023-05-12T05:21:43;101782.50;;;13.55;90.84
39823;BME280;25499;53.958;10.970;2023-05-12T05:24:10;101770.34;;;13.70;88.02
39823;BME280;25499;53.958;10.970;2023-05-12T05:26:36;101772.03;;;13.83;86.62
39823;BME280;25499;53.958;10.970;2023-05-12T05:29:03;101759.81;;;14.08;82.34
39823;BME280;25499;53.958;10.970;2023-05-12T05:31:30;101736.22;;;14.25;78.98
39823;BME280;25499;53.958;10.970;2023-05-12T05:33:57;101728.34;;;14.38;76.14
39823;BME280;25499;53.958;10.970;2023-05-12T05:36:25;101713.41;;;14.64;74.50
39823;BME280;25499;53.958;10.970;2023-05-12T05:38:52;101711.59;;;14.77;73.45
39823;BME280;25499;53.958;10.970;2023-05-12T05:41:19;101721.09;;;14.98;72.78
39823;BME280;25499;53.958;10.970;2023-05-12T05:43:47;101721.84;;;15.17;72.28
39823;BME280;25499;53.958;10.970;2023-05-12T05:46:13;101732.88;;;15.64;71.84
39823;BME280;25499;53.958;10.970;2023-05-12T05:48:40;101705.69;;;15.73;69.11
39823;BME280;25499;53.958;10.970;2023-05-12T05:51:07;101714.34;;;15.85;69.83
39823;BME280;25499;53.958;10.970;2023-05-12T05:53:37;101710.00;;;15.83;69.57
39823;BME280;25499;53.958;10.970;2023-05-12T05:56:04;101697.81;;;15.77;68.33
39823;BME280;25499;53.958;10.970;2023-05-12T05:58:31;101701.28;;;15.76;68.30
39823;BME280;25499;53.958;10.970;2023-05-12T06:00:57;101701.81;;;16.12;67.33
39823;BME280;25499;53.958;10.970;2023-05-12T06:03:25;101708.66;;;16.26;66.94
39823;BME280;25499;53.958;10.970;2023-05-12T06:05:52;101699.97;;;16.19;66.52
39823;BME280;25499;53.958;10.970;2023-05-12T06:08:19;101684.00;;;16.37;65.10
39823;BME280;25499;53.958;10.970;2023-05-12T06:10:47;101709.66;;;16.88;65.29
39823;BME280;25499;53.958;10.970;2023-05-12T06:13:14;101705.97;;;17.03;64.93
39823;BME280;25499;53.958;10.970;2023-05-12T06:15:42;101720.47;;;17.30;64.80
39823;BME280;25499;53.958;10.970;2023-05-12T06:18:09;101688.63;;;17.46;63.46
39823;BME280;25499;53.958;10.970;2023-05-12T06:20:36;101704.75;;;17.79;63.02
39823;BME280;25499;53.958;10.970;2023-05-12T06:23:02;101680.94;;;17.83;61.96
39823;BME280;25499;53.958;10.970;2023-05-12T06:25:31;101718.50;;;17.96;63.27
39823;BME280;25499;53.958;10.970;2023-05-12T06:27:59;101686.06;;;17.94;61.41
39823;BME280;25499;53.958;10.970;2023-05-12T06:30:26;101672.44;;;17.67;61.35
39823;BME280;25499;53.958;10.970;2023-05-12T06:32:52;101692.97;;;18.00;61.49
39823;BME280;25499;53.958;10.970;2023-05-12T06:35:19;101691.81;;;18.15;60.85
39823;BME280;25499;53.958;10.970;2023-05-12T06:37:46;101712.38;;;18.41;61.54
39823;BME280;25499;53.958;10.970;2023-05-12T06:40:15;101717.53;;;18.47;62.23
39823;BME280;25499;53.958;10.970;2023-05-12T06:42:43;101719.44;;;18.82;61.08
39823;BME280;25499;53.958;10.970;2023-05-12T06:45:11;101690.28;;;18.89;59.04
39823;BME280;25499;53.958;10.970;2023-05-12T06:47:38;101720.47;;;19.14;60.69
39823;BME280;25499;53.958;10.970;2023-05-12T06:50:06;101745.59;;;19.32;61.76
39823;BME280;25499;53.958;10.970;2023-05-12T06:52:34;101821.16;;;19.38;65.62
39823;BME280;25499;53.958;10.970;2023-05-12T06:55:01;101822.50;;;19.17;69.50
39823;BME280;25499;53.958;10.970;2023-05-12T06:57:27;101828.16;;;19.41;69.77
39823;BME280;25499;53.958;10.970;2023-05-12T06:59:54;101781.59;;;19.36;66.36
39823;BME280;25499;53.958;10.970;2023-05-12T07:02:23;101751.63;;;19.37;64.43
39823;BME280;25499;53.958;10.970;2023-05-12T07:04:49;101770.41;;;19.63;64.76
39823;BME280;25499;53.958;10.970;2023-05-12T07:07:16;101804.13;;;19.89;67.56
39823;BME280;25499;53.958;10.970;2023-05-12T07:09:43;101757.28;;;19.94;64.62
39823;BME280;25499;53.958;10.970;2023-05-12T07:12:10;101766.50;;;20.13;63.92
39823;BME280;25499;53.958;10.970;2023-05-12T07:14:37;101796.69;;;20.38;65.88
39823;BME280;25499;53.958;10.970;2023-05-12T07:17:04;101789.56;;;20.40;65.66
39823;BME280;25499;53.958;10.970;2023-05-12T07:19:32;101783.50;;;20.36;65.55
39823;BME280;25499;53.958;10.970;2023-05-12T07:22:00;101770.13;;;20.42;64.28
39823;BME280;25499;53.958;10.970;2023-05-12T07:24:27;101794.13;;;20.67;64.43
39823;BME280;25499;53.958;10.970;2023-05-12T07:26:54;101798.41;;;20.72;64.76
39823;BME280;25499;53.958;10.970;2023-05-12T07:29:21;101767.81;;;20.61;63.58
39823;BME280;25499;53.958;10.970;2023-05-12T07:31:47;101727.41;;;20.55;60.92
39823;BME280;25499;53.958;10.970;2023-05-12T07:34:14;101806.41;;;20.70;64.64
39823;BME280;25499;53.958;10.970;2023-05-12T07:36:42;101783.41;;;20.72;64.01
39823;BME280;25499;53.958;10.970;2023-05-12T07:39:09;101745.34;;;20.76;61.33
39823;BME280;25499;53.958;10.970;2023-05-12T07:41:37;101757.13;;;20.96;61.31
39823;BME280;25499;53.958;10.970;2023-05-12T07:44:04;101730.50;;;21.00;58.56
39823;BME280;25499;53.958;10.970;2023-05-12T07:46:31;101809.97;;;20.99;63.56
39823;BME280;25499;53.958;10.970;2023-05-12T07:48:57;101830.22;;;21.01;65.63
39823;BME280;25499;53.958;10.970;2023-05-12T07:51:24;101767.69;;;21.26;61.87
39823;BME280;25499;53.958;10.970;2023-05-12T07:53:52;101728.75;;;21.28;58.19
39823;BME280;25499;53.958;10.970;2023-05-12T07:56:19;101810.25;;;21.49;62.20
39823;BME280;25499;53.958;10.970;2023-05-12T07:58:47;101777.94;;;21.65;61.19
39823;BME280;25499;53.958;10.970;2023-05-12T08:01:14;101799.69;;;21.48;61.49
39823;BME280;25499;53.958;10.970;2023-05-12T08:03:41;101770.75;;;21.68;60.61
39823;BME280;25499;53.958;10.970;2023-05-12T08:06:07;101774.19;;;21.43;60.94
39823;BME280;25499;53.958;10.970;2023-05-12T08:08:35;101777.31;;;21.83;60.38
39823;BME280;25499;53.958;10.970;2023-05-12T08:11:03;101747.56;;;21.75;58.53
39823;BME280;25499;53.958;10.970;2023-05-12T08:13:30;101790.06;;;21.72;61.14
39823;BME280;25499;53.958;10.970;2023-05-12T08:15:57;101786.41;;;21.76;60.73
39823;BME280;25499;53.958;10.970;2023-05-12T08:18:23;101746.59;;;22.03;57.93
39823;BME280;25499;53.958;10.970;2023-05-12T08:20:50;101722.06;;;21.96;56.46
39823;BME280;25499;53.958;10.970;2023-05-12T08:23:17;101745.88;;;21.97;57.77
39823;BME280;25499;53.958;10.970;2023-05-12T08:25:44;101745.78;;;22.01;57.19
39823;BME280;25499;53.958;10.970;2023-05-12T08:28:14;101725.91;;;21.87;56.55
39823;BME280;25499;53.958;10.970;2023-05-12T08:30:41;101749.78;;;21.87;57.38
39823;BME280;25499;53.958;10.970;2023-05-12T08:33:09;101725.91;;;21.87;56.34
39823;BME280;25499;53.958;10.970;2023-05-12T08:35:37;101751.25;;;21.96;56.63
39823;BME280;25499;53.958;10.970;2023-05-12T08:38:04;101741.94;;;22.09;55.50
39823;BME280;25499;53.958;10.970;2023-05-12T08:40:40;101762.50;;;22.03;56.34
39823;BME280;25499;53.958;10.970;2023-05-12T08:43:24;101738.13;;;22.16;56.08
39823;BME280;25499;53.958;10.970;2023-05-12T08:45:51;101735.56;;;22.15;54.18
39823;BME280;25499;53.958;10.970;2023-05-12T08:48:21;101726.22;;;22.05;55.03
39823;BME280;25499;53.958;10.970;2023-05-12T08:50:49;101732.22;;;22.10;53.67
39823;BME280;25499;53.958;10.970;2023-05-12T08:53:18;101702.94;;;22.37;52.88
39823;BME280;25499;53.958;10.970;2023-05-12T08:55:47;101676.66;;;22.30;51.23
39823;BME280;25499;53.958;10.970;2023-05-12T08:58:17;101726.78;;;22.38;52.99
39823;BME280;25499;53.958;10.970;2023-05-12T09:00:44;101737.72;;;22.54;52.98
39823;BME280;25499;53.958;10.970;2023-05-12T09:03:12;101741.97;;;22.58;53.84
39823;BME280;25499;53.958;10.970;2023-05-12T09:05:40;101745.25;;;22.65;54.03
39823;BME280;25499;53.958;10.970;2023-05-12T09:08:08;101782.97;;;22.75;55.07
39823;BME280;25499;53.958;10.970;2023-05-12T09:10:35;101785.53;;;23.00;54.92
39823;BME280;25499;53.958;10.970;2023-05-12T09:13:03;101759.00;;;22.76;54.29
39823;BME280;25499;53.958;10.970;2023-05-12T09:15:38;101725.78;;;22.88;51.94
39823;BME280;25499;53.958;10.970;2023-05-12T09:18:06;101771.97;;;22.84;53.60
39823;BME280;25499;53.958;10.970;2023-05-12T09:20:33;101741.09;;;22.81;52.52
39823;BME280;25499;53.958;10.970;2023-05-12T09:23:11;101726.38;;;22.72;51.72
39823;BME280;25499;53.958;10.970;2023-05-12T09:25:38;101753.06;;;22.69;52.62
39823;BME280;25499;53.958;10.970;2023-05-12T09:28:05;101714.31;;;22.64;50.84
39823;BME280;25499;53.958;10.970;2023-05-12T09:30:32;101744.56;;;22.60;52.50
39823;BME280;25499;53.958;10.970;2023-05-12T09:33:07;101780.81;;;22.61;54.21
39823;BME280;25499;53.958;10.970;2023-05-12T09:35:39;101778.66;;;22.94;53.84
39823;BME280;25499;53.958;10.970;2023-05-12T09:38:07;101775.03;;;23.20;53.58
39823;BME280;25499;53.958;10.970;2023-05-12T09:40:34;101766.31;;;23.17;53.09
39823;BME280;25499;53.958;10.970;2023-05-12T09:43:01;101745.00;;;22.95;52.24
39823;BME280;25499;53.958;10.970;2023-05-12T09:45:28;101736.84;;;22.99;52.17
39823;BME280;25499;53.958;10.970;2023-05-12T09:48:07;101693.53;;;22.97;50.25
39823;BME280;25499;53.958;10.970;2023-05-12T09:50:42;101792.25;;;23.10;54.72
39823;BME280;25499;53.958;10.970;2023-05-12T09:53:09;101801.09;;;23.33;55.21
39823;BME280;25499;53.958;10.970;2023-05-12T09:55:36;101789.69;;;23.53;54.52
39823;BME280;25499;53.958;10.970;2023-05-12T09:58:07;101783.78;;;23.67;53.87
39823;BME280;25499;53.958;10.970;2023-05-12T10:00:35;101772.66;;;23.57;53.30
39823;BME280;25499;53.958;10.970;2023-05-12T10:03:09;101791.53;;;23.51;54.03
39823;BME280;25499;53.958;10.970;2023-05-12T10:05:41;101735.66;;;23.73;51.86
39823;BME280;25499;53.958;10.970;2023-05-12T10:08:14;101748.72;;;23.57;52.09
39823;BME280;25499;53.958;10.970;2023-05-12T10:10:44;101766.09;;;23.65;52.69
39823;BME280;25499;53.958;10.970;2023-05-12T10:13:13;101737.78;;;23.64;51.07
39823;BME280;25499;53.958;10.970;2023-05-12T10:15:40;101743.94;;;23.87;51.06
39823;BME280;25499;53.958;10.970;2023-05-12T10:18:09;101726.56;;;23.78;50.25
39823;BME280;25499;53.958;10.970;2023-05-12T10:20:37;101738.63;;;23.44;51.35
39823;BME280;25499;53.958;10.970;2023-05-12T10:23:05;101675.63;;;23.02;49.11
39823;BME280;25499;53.958;10.970;2023-05-12T10:25:32;101717.84;;;22.88;50.31
39823;BME280;25499;53.958;10.970;2023-05-12T10:28:00;101683.03;;;22.72;49.16
39823;BME280;25499;53.958;10.970;2023-05-12T10:30:28;101766.06;;;22.99;52.27
39823;BME280;25499;53.958;10.970;2023-05-12T10:32:55;101729.75;;;22.78;50.81
39823;BME280;25499;53.958;10.970;2023-05-12T10:35:31;101731.25;;;22.61;50.82
39823;BME280;25499;53.958;10.970;2023-05-12T10:38:05;101693.72;;;21.98;50.61
39823;BME280;25499;53.958;10.970;2023-05-12T10:40:33;101715.19;;;22.64;50.49
39823;BME280;25499;53.958;10.970;2023-05-12T10:43:00;101722.00;;;23.17;50.19
39823;BME280;25499;53.958;10.970;2023-05-12T10:45:27;101718.41;;;23.18;49.93
39823;BME280;25499;53.958;10.970;2023-05-12T10:48:04;101714.31;;;23.09;49.50
39823;BME280;25499;53.958;10.970;2023-05-12T10:50:32;101698.25;;;23.35;49.18
39823;BME280;25499;53.958;10.970;2023-05-12T10:52:59;101670.34;;;23.24;48.14
39823;BME280;25499;53.958;10.970;2023-05-12T10:55:31;101735.56;;;23.32;49.90
39823;BME280;25499;53.958;10.970;2023-05-12T10:58:04;101717.59;;;23.38;49.35
39823;BME280;25499;53.958;10.970;2023-05-12T11:00:42;101713.44;;;23.53;48.81
39823;BME280;25499;53.958;10.970;2023-05-12T11:03:11;101696.66;;;22.86;48.49
39823;BME280;25499;53.958;10.970;2023-05-12T11:05:40;101720.31;;;23.15;50.07
39823;BME280;25499;53.958;10.970;2023-05-12T11:08:07;101702.75;;;22.88;49.23
39823;BME280;25499;53.958;10.970;2023-05-12T11:10:34;101702.44;;;22.96;49.62
39823;BME280;25499;53.958;10.970;2023-05-12T11:13:01;101755.59;;;23.40;51.06
39823;BME280;25499;53.958;10.970;2023-05-12T11:15:28;101682.81;;;23.22;48.71
39823;BME280;25499;53.958;10.970;2023-05-12T11:17:55;101691.16;;;22.67;48.99
39823;BME280;25499;53.958;10.970;2023-05-12T11:20:22;101713.59;;;22.82;49.77
39823;BME280;25499;53.958;10.970;2023-05-12T11:22:51;101697.41;;;22.66;49.49
39823;BME280;25499;53.958;10.970;2023-05-12T11:25:19;101733.88;;;22.85;50.42
39823;BME280;25499;53.958;10.970;2023-05-12T11:27:48;101728.19;;;23.18;50.44
39823;BME280;25499;53.958;10.970;2023-05-12T11:30:16;101699.69;;;23.21;48.83
39823;BME280;25499;53.958;10.970;2023-05-12T11:32:44;101759.16;;;23.19;50.44
39823;BME280;25499;53.958;10.970;2023-05-12T11:35:12;101721.38;;;23.11;49.94
39823;BME280;25499;53.958;10.970;2023-05-12T11:37:40;101723.56;;;22.99;50.14
39823;BME280;25499;53.958;10.970;2023-05-12T11:40:14;101735.78;;;23.49;49.82
39823;BME280;25499;53.958;10.970;2023-05-12T11:42:42;101730.63;;;23.44;50.44
39823;BME280;25499;53.958;10.970;2023-05-12T11:45:23;101712.88;;;23.88;49.46
39823;BME280;25499;53.958;10.970;2023-05-12T11:47:51;101759.25;;;23.80;50.21
39823;BME280;25499;53.958;10.970;2023-05-12T11:50:22;101752.94;;;24.05;49.86
39823;BME280;25499;53.958;10.970;2023-05-12T11:52:52;101775.38;;;24.39;50.45
39823;BME280;25499;53.958;10.970;2023-05-12T11:55:21;101713.50;;;24.13;48.58
39823;BME280;25499;53.958;10.970;2023-05-12T11:57:56;101701.19;;;23.92;47.59
39823;BME280;25499;53.958;10.970;2023-05-12T12:00:31;101733.94;;;24.13;48.79
39823;BME280;25499;53.958;10.970;2023-05-12T12:03:05;101723.66;;;24.05;48.69
39823;BME280;25499;53.958;10.970;2023-05-12T12:05:32;101708.06;;;23.75;48.01
39823;BME280;25499;53.958;10.970;2023-05-12T12:08:10;101696.22;;;23.62;47.92
39823;BME280;25499;53.958;10.970;2023-05-12T12:10:42;101728.28;;;23.37;49.17
39823;BME280;25499;53.958;10.970;2023-05-12T12:13:09;101683.63;;;22.57;48.82
39823;BME280;25499;53.958;10.970;2023-05-12T12:15:36;101760.59;;;22.57;51.30
39823;BME280;25499;53.958;10.970;2023-05-12T12:18:03;101729.59;;;22.81;50.00
39823;BME280;25499;53.958;10.970;2023-05-12T12:20:30;101741.91;;;22.83;50.45
39823;BME280;25499;53.958;10.970;2023-05-12T12:22:56;101750.56;;;22.88;50.76
39823;BME280;25499;53.958;10.970;2023-05-12T12:25:23;101761.47;;;22.81;50.98
39823;BME280;25499;53.958;10.970;2023-05-12T12:27:51;101762.00;;;22.67;51.29
39823;BME280;25499;53.958;10.970;2023-05-12T12:30:18;101783.88;;;22.73;52.14
39823;BME280;25499;53.958;10.970;2023-05-12T12:32:45;101754.59;;;22.99;50.47
39823;BME280;25499;53.958;10.970;2023-05-12T12:35:13;101743.28;;;22.70;50.16
39823;BME280;25499;53.958;10.970;2023-05-12T12:37:40;101773.31;;;22.72;51.57
39823;BME280;25499;53.958;10.970;2023-05-12T12:40:07;101746.09;;;22.42;50.94
39823;BME280;25499;53.958;10.970;2023-05-12T12:42:35;101734.63;;;22.16;51.00
39823;BME280;25499;53.958;10.970;2023-05-12T12:45:05;101740.13;;;21.59;51.84
39823;BME280;25499;53.958;10.970;2023-05-12T12:47:33;101781.41;;;21.93;53.73
39823;BME280;25499;53.958;10.970;2023-05-12T12:50:00;101757.63;;;21.90;52.34
39823;BME280;25499;53.958;10.970;2023-05-12T12:52:27;101758.84;;;22.07;52.72
39823;BME280;25499;53.958;10.970;2023-05-12T12:54:54;101734.19;;;21.51;52.45
39823;BME280;25499;53.958;10.970;2023-05-12T12:57:21;101759.78;;;21.24;53.32
39823;BME280;25499;53.958;10.970;2023-05-12T12:59:48;101754.38;;;20.99;53.51
39823;BME280;25499;53.958;10.970;2023-05-12T13:02:16;101758.28;;;20.56;54.44
39823;BME280;25499;53.958;10.970;2023-05-12T13:04:43;101785.56;;;20.58;55.91
39823;BME280;25499;53.958;10.970;2023-05-12T13:07:10;101798.47;;;20.70;55.75
39823;BME280;25499;53.958;10.970;2023-05-12T13:09:37;101774.22;;;20.84;55.09
39823;BME280;25499;53.958;10.970;2023-05-12T13:12:05;101780.75;;;20.72;55.56
39823;BME280;25499;53.958;10.970;2023-05-12T13:14:32;101773.09;;;20.63;55.01
39823;BME280;25499;53.958;10.970;2023-05-12T13:16:59;101791.75;;;20.57;55.77
39823;BME280;25499;53.958;10.970;2023-05-12T13:19:27;101788.97;;;20.61;55.62
39823;BME280;25499;53.958;10.970;2023-05-12T13:21:55;101785.94;;;20.44;56.17
39823;BME280;25499;53.958;10.970;2023-05-12T13:24:22;101768.16;;;20.16;55.91
39823;BME280;25499;53.958;10.970;2023-05-12T13:26:48;101768.78;;;19.93;56.16
39823;BME280;25499;53.958;10.970;2023-05-12T13:29:16;101777.91;;;19.81;56.97
39823;BME280;25499;53.958;10.970;2023-05-12T13:31:42;101784.13;;;19.79;57.24
39823;BME280;25499;53.958;10.970;2023-05-12T13:34:10;101802.53;;;19.82;57.79
39823;BME280;25499;53.958;10.970;2023-05-12T13:36:39;101806.13;;;19.81;58.77
39823;BME280;25499;53.958;10.970;2023-05-12T13:39:05;101790.31;;;19.78;58.19
39823;BME280;25499;53.958;10.970;2023-05-12T13:41:34;101789.19;;;19.88;57.10
39823;BME280;25499;53.958;10.970;2023-05-12T13:44:01;101798.75;;;19.92;57.60
39823;BME280;25499;53.958;10.970;2023-05-12T13:46:28;101789.13;;;19.91;57.82
39823;BME280;25499;53.958;10.970;2023-05-12T13:48:55;101803.91;;;19.98;58.31
39823;BME280;25499;53.958;10.970;2023-05-12T13:51:21;101763.56;;;19.90;57.17
39823;BME280;25499;53.958;10.970;2023-05-12T13:53:50;101728.88;;;19.68;55.36
39823;BME280;25499;53.958;10.970;2023-05-12T13:56:17;101716.25;;;19.43;54.99
39823;BME280;25499;53.958;10.970;2023-05-12T13:58:44;101735.66;;;19.44;55.94
39823;BME280;25499;53.958;10.970;2023-05-12T14:01:11;101761.13;;;19.45;57.07
39823;BME280;25499;53.958;10.970;2023-05-12T14:03:38;101770.66;;;19.52;57.02
39823;BME280;25499;53.958;10.970;2023-05-12T14:06:06;101740.72;;;19.51;55.32
39823;BME280;25499;53.958;10.970;2023-05-12T14:08:34;101722.06;;;19.23;54.76
39823;BME280;25499;53.958;10.970;2023-05-12T14:11:03;101729.44;;;19.07;55.30
39823;BME280;25499;53.958;10.970;2023-05-12T14:13:30;101747.19;;;19.00;55.94
39823;BME280;25499;53.958;10.970;2023-05-12T14:15:56;101729.84;;;18.89;56.19
39823;BME280;25499;53.958;10.970;2023-05-12T14:18:23;101741.41;;;18.83;56.08
39823;BME280;25499;53.958;10.970;2023-05-12T14:20:50;101753.84;;;18.76;56.92
39823;BME280;25499;53.958;10.970;2023-05-12T14:23:17;101749.50;;;18.74;56.73
39823;BME280;25499;53.958;10.970;2023-05-12T14:25:44;101742.69;;;18.63;56.04
39823;BME280;25499;53.958;10.970;2023-05-12T14:28:12;101757.53;;;18.68;56.92
39823;BME280;25499;53.958;10.970;2023-05-12T14:30:39;101769.84;;;18.69;57.59
39823;BME280;25499;53.958;10.970;2023-05-12T14:33:06;101768.91;;;18.71;56.91
39823;BME280;25499;53.958;10.970;2023-05-12T14:35:32;101778.59;;;18.71;58.19
39823;BME280;25499;53.958;10.970;2023-05-12T14:37:59;101763.00;;;18.58;57.41
39823;BME280;25499;53.958;10.970;2023-05-12T14:40:26;101771.13;;;18.48;57.85
39823;BME280;25499;53.958;10.970;2023-05-12T14:42:53;101785.94;;;18.53;58.06
39823;BME280;25499;53.958;10.970;2023-05-12T14:45:21;101803.41;;;18.60;59.21
39823;BME280;25499;53.958;10.970;2023-05-12T14:47:50;101801.59;;;18.64;59.48
39823;BME280;25499;53.958;10.970;2023-05-12T14:50:17;101782.13;;;18.70;58.35
39823;BME280;25499;53.958;10.970;2023-05-12T14:52:44;101799.84;;;18.63;59.18
39823;BME280;25499;53.958;10.970;2023-05-12T14:55:11;101792.97;;;18.54;58.99
39823;BME280;25499;53.958;10.970;2023-05-12T14:57:39;101810.56;;;18.55;59.76
39823;BME280;25499;53.958;10.970;2023-05-12T15:00:07;101813.09;;;18.58;59.79
39823;BME280;25499;53.958;10.970;2023-05-12T15:02:39;101820.25;;;18.53;59.88
39823;BME280;25499;53.958;10.970;2023-05-12T15:05:07;101812.28;;;18.56;59.50
39823;BME280;25499;53.958;10.970;2023-05-12T15:07:35;101804.50;;;18.50;58.98
39823;BME280;25499;53.958;10.970;2023-05-12T15:10:02;101800.16;;;18.46;59.70
39823;BME280;25499;53.958;10.970;2023-05-12T15:12:29;101817.59;;;18.53;59.68
39823;BME280;25499;53.958;10.970;2023-05-12T15:14:56;101813.38;;;18.44;60.18
39823;BME280;25499;53.958;10.970;2023-05-12T15:17:25;101830.09;;;18.45;60.98
39823;BME280;25499;53.958;10.970;2023-05-12T15:19:54;101813.34;;;18.46;60.09
39823;BME280;25499;53.958;10.970;2023-05-12T15:22:20;101800.63;;;18.21;59.60
39823;BME280;25499;53.958;10.970;2023-05-12T15:24:47;101811.06;;;18.27;60.09
39823;BME280;25499;53.958;10.970;2023-05-12T15:27:14;101801.44;;;18.25;59.64
39823;BME280;25499;53.958;10.970;2023-05-12T15:29:41;101832.03;;;18.34;60.99
39823;BME280;25499;53.958;10.970;2023-05-12T15:32:07;101823.34;;;18.29;61.23
39823;BME280;25499;53.958;10.970;2023-05-12T15:34:34;101832.22;;;18.24;61.56
39823;BME280;25499;53.958;10.970;2023-05-12T15:37:03;101838.31;;;18.28;62.31
39823;BME280;25499;53.958;10.970;2023-05-12T15:39:30;101830.44;;;18.26;61.84
39823;BME280;25499;53.958;10.970;2023-05-12T15:41:56;101821.84;;;18.14;61.44
39823;BME280;25499;53.958;10.970;2023-05-12T15:44:24;101809.66;;;18.08;61.20
39823;BME280;25499;53.958;10.970;2023-05-12T15:46:51;101809.09;;;17.89;61.10
39823;BME280;25499;53.958;10.970;2023-05-12T15:49:19;101814.63;;;17.72;62.34
39823;BME280;25499;53.958;10.970;2023-05-12T15:51:45;101838.38;;;17.69;63.43
39823;BME280;25499;53.958;10.970;2023-05-12T15:54:14;101837.63;;;17.59;63.46
39823;BME280;25499;53.958;10.970;2023-05-12T15:56:41;101821.97;;;17.50;63.30
39823;BME280;25499;53.958;10.970;2023-05-12T15:59:07;101831.81;;;17.37;63.93
39823;BME280;25499;53.958;10.970;2023-05-12T16:01:35;101852.72;;;17.46;64.77
39823;BME280;25499;53.958;10.970;2023-05-12T16:04:02;101836.06;;;17.44;64.74
39823;BME280;25499;53.958;10.970;2023-05-12T16:06:29;101839.81;;;17.29;64.99
39823;BME280;25499;53.958;10.970;2023-05-12T16:08:56;101840.56;;;17.38;64.79
39823;BME280;25499;53.958;10.970;2023-05-12T16:11:25;101830.22;;;17.24;64.59
39823;BME280;25499;53.958;10.970;2023-05-12T16:13:52;101825.94;;;17.17;63.99
39823;BME280;25499;53.958;10.970;2023-05-12T16:16:21;101828.56;;;17.17;63.89
39823;BME280;25499;53.958;10.970;2023-05-12T16:18:48;101854.13;;;17.07;65.02
39823;BME280;25499;53.958;10.970;2023-05-12T16:21:16;101852.34;;;17.07;65.68
39823;BME280;25499;53.958;10.970;2023-05-12T16:23:44;101860.22;;;17.09;65.83
39823;BME280;25499;53.958;10.970;2023-05-12T16:26:11;101836.66;;;17.01;64.90
39823;BME280;25499;53.958;10.970;2023-05-12T16:28:39;101854.25;;;16.98;65.46
39823;BME280;25499;53.958;10.970;2023-05-12T16:31:06;101853.47;;;16.89;66.11
39823;BME280;25499;53.958;10.970;2023-05-12T16:33:33;101850.88;;;16.82;65.82
39823;BME280;25499;53.958;10.970;2023-05-12T16:36:00;101846.59;;;16.71;66.22
39823;BME280;25499;53.958;10.970;2023-05-12T16:38:27;101848.41;;;16.69;66.91
39823;BME280;25499;53.958;10.970;2023-05-12T16:40:56;101847.56;;;16.64;66.76
39823;BME280;25499;53.958;10.970;2023-05-12T16:43:23;101857.28;;;16.59;66.79
39823;BME280;25499;53.958;10.970;2023-05-12T16:45:59;101857.28;;;16.59;67.25
39823;BME280;25499;53.958;10.970;2023-05-12T16:48:26;101872.91;;;16.70;67.67
39823;BME280;25499;53.958;10.970;2023-05-12T16:51:02;101860.72;;;16.64;67.69
39823;BME280;25499;53.958;10.970;2023-05-12T16:53:30;101856.41;;;16.57;67.65
39823;BME280;25499;53.958;10.970;2023-05-12T16:55:57;101853.00;;;16.47;68.02
39823;BME280;25499;53.958;10.970;2023-05-12T16:58:24;101854.69;;;16.51;67.49
39823;BME280;25499;53.958;10.970;2023-05-12T17:00:51;101852.19;;;16.42;67.68
39823;BME280;25499;53.958;10.970;2023-05-12T17:03:21;101850.50;;;16.35;67.87
39823;BME280;25499;53.958;10.970;2023-05-12T17:05:48;101850.56;;;16.27;68.08
39823;BME280;25499;53.958;10.970;2023-05-12T17:08:15;101859.25;;;16.35;68.80
39823;BME280;25499;53.958;10.970;2023-05-12T17:10:42;101860.19;;;16.30;68.88
39823;BME280;25499;53.958;10.970;2023-05-12T17:13:09;101846.16;;;16.31;68.32
39823;BME280;25499;53.958;10.970;2023-05-12T17:15:37;101844.41;;;16.31;68.13
39823;BME280;25499;53.958;10.970;2023-05-12T17:18:04;101860.25;;;16.20;68.30
39823;BME280;25499;53.958;10.970;2023-05-12T17:20:33;101864.63;;;16.23;69.07
39823;BME280;25499;53.958;10.970;2023-05-12T17:23:00;101855.94;;;16.12;68.07
39823;BME280;25499;53.958;10.970;2023-05-12T17:25:27;101849.69;;;16.30;67.93
39823;BME280;25499;53.958;10.970;2023-05-12T17:27:55;101856.03;;;16.06;68.48
39823;BME280;25499;53.958;10.970;2023-05-12T17:30:22;101861.16;;;16.18;68.90
39823;BME280;25499;53.958;10.970;2023-05-12T17:32:50;101870.00;;;16.11;69.12
39823;BME280;25499;53.958;10.970;2023-05-12T17:35:17;101874.41;;;16.04;69.43
39823;BME280;25499;53.958;10.970;2023-05-12T17:37:45;101884.97;;;15.95;70.40
39823;BME280;25499;53.958;10.970;2023-05-12T17:40:15;101881.50;;;15.91;70.49
39823;BME280;25499;53.958;10.970;2023-05-12T17:42:42;101891.13;;;15.92;70.30
39823;BME280;25499;53.958;10.970;2023-05-12T17:45:10;101894.72;;;15.79;70.70
39823;BME280;25499;53.958;10.970;2023-05-12T17:47:38;101892.13;;;15.76;70.91
39823;BME280;25499;53.958;10.970;2023-05-12T17:50:06;101899.13;;;15.69;71.56
39823;BME280;25499;53.958;10.970;2023-05-12T17:52:35;101901.81;;;15.58;72.41
39823;BME280;25499;53.958;10.970;2023-05-12T17:55:04;101902.75;;;15.43;73.08
39823;BME280;25499;53.958;10.970;2023-05-12T17:57:31;101910.66;;;15.42;74.03
39823;BME280;25499;53.958;10.970;2023-05-12T17:59:58;101917.66;;;15.43;74.13
39823;BME280;25499;53.958;10.970;2023-05-12T18:02:25;101914.09;;;15.48;74.37